EZY6AT LEAS-LEAS

Flight info

Callsign EZY6AT
Flight time N/A
Altitude 13000
Route AMAKA
Aircraft A320/M-SDE3FGHIRWY/LB1

Departure

Time 2026-04-18 10:29
Airport Asturias Airport (LEAS)

Arrival

Time N/A
Airport Asturias Airport (LEAS)
Time Latitude Longitude Altitude Speed Heading
2026-04-18 10:14 43.55986 -6.03137 383 ft 0 kts 243°
2026-04-18 10:23 43.55990 -6.03126 383 ft 2 kts 243°
2026-04-18 10:23 43.55997 -6.03105 383 ft 2 kts 217°
2026-04-18 10:23 43.56013 -6.03098 383 ft 3 kts 144°
2026-04-18 10:23 43.56024 -6.03117 383 ft 3 kts 122°
2026-04-18 10:24 43.56031 -6.03128 383 ft 0 kts 105°
2026-04-18 10:26 43.56027 -6.03110 383 ft 5 kts 105°
2026-04-18 10:26 43.56006 -6.03014 383 ft 16 kts 107°
2026-04-18 10:26 43.56039 -6.02889 384 ft 15 kts 26°
2026-04-18 10:26 43.56043 -6.02838 384 ft 10 kts 101°
2026-04-18 10:27 43.56022 -6.02731 384 ft 24 kts 107°
2026-04-18 10:27 43.55967 -6.02500 384 ft 25 kts 107°
2026-04-18 10:27 43.55970 -6.02291 386 ft 21 kts 61°
2026-04-18 10:27 43.56040 -6.02223 401 ft 5 kts 353°
2026-04-18 10:28 43.56070 -6.02246 401 ft 5 kts 311°
2026-04-18 10:28 43.56077 -6.02287 401 ft 0 kts 287°
2026-04-18 10:28 43.56124 -6.02468 400 ft 59 kts 288°
2026-04-18 10:29 43.56325 -6.03324 404 ft 125 kts 288°
2026-04-18 10:29 43.56653 -6.04683 482 ft 165 kts 289°
2026-04-18 10:29 43.57014 -6.06113 1194 ft 157 kts 290°
2026-04-18 10:29 43.57406 -6.07569 1591 ft 165 kts 300°
2026-04-18 10:30 43.58186 -6.08675 1626 ft 162 kts 340°
2026-04-18 10:30 43.59238 -6.08788 1440 ft 151 kts 27°
2026-04-18 10:30 43.59958 -6.07801 1280 ft 151 kts 75°
2026-04-18 10:30 43.59924 -6.06403 1380 ft 150 kts 103°
2026-04-18 10:31 43.59598 -6.05018 1421 ft 154 kts 108°
2026-04-18 10:31 43.59233 -6.03628 1374 ft 154 kts 108°
2026-04-18 10:31 43.58872 -6.02224 1281 ft 155 kts 109°
2026-04-18 10:31 43.58514 -6.00813 1226 ft 156 kts 108°
2026-04-18 10:32 43.58163 -5.99418 1300 ft 154 kts 107°
2026-04-18 10:32 43.57839 -5.98008 1365 ft 153 kts 105°
2026-04-18 10:32 43.57517 -5.96630 1434 ft 148 kts 111°
2026-04-18 10:32 43.56915 -5.95523 1413 ft 149 kts 144°
2026-04-18 10:33 43.55930 -5.95122 1331 ft 150 kts 179°
2026-04-18 10:33 43.54937 -5.95590 1285 ft 158 kts 221°
2026-04-18 10:33 43.54683 -5.96948 1293 ft 156 kts 290°
2026-04-18 10:33 43.55070 -5.98342 1216 ft 156 kts 295°
2026-04-18 10:34 43.55462 -5.99730 794 ft 155 kts 292°
2026-04-18 10:34 43.55793 -6.01114 581 ft 152 kts 290°
2026-04-18 10:34 43.56129 -6.02520 405 ft 153 kts 288°
2026-04-18 10:34 43.56455 -6.03886 847 ft 157 kts 292°
2026-04-18 10:35 43.57132 -6.05139 1358 ft 177 kts 330°
2026-04-18 10:35 43.58384 -6.05593 1555 ft 198 kts
2026-04-18 10:35 43.59616 -6.04918 1547 ft 189 kts 45°
2026-04-18 10:35 43.60261 -6.03373 1477 ft 187 kts 82°
2026-04-18 10:36 43.60062 -6.01658 1473 ft 178 kts 112°
2026-04-18 10:36 43.59629 -6.00090 1543 ft 170 kts 107°
2026-04-18 10:36 43.59300 -5.98587 1505 ft 159 kts 104°
2026-04-18 10:36 43.59015 -5.97137 1433 ft 154 kts 107°
2026-04-18 10:37 43.58522 -5.95868 1332 ft 146 kts 132°
2026-04-18 10:37 43.57640 -5.95199 1206 ft 147 kts 167°
2026-04-18 10:37 43.56620 -5.95290 1213 ft 150 kts 194°
2026-04-18 10:37 43.55751 -5.96112 1255 ft 158 kts 236°
2026-04-18 10:38 43.55331 -5.97485 1374 ft 157 kts 255°
2026-04-18 10:38 43.55263 -5.98987 1043 ft 156 kts 281°
2026-04-18 10:38 43.55609 -6.00393 637 ft 153 kts 294°
2026-04-18 10:38 43.55953 -6.01776 491 ft 154 kts 290°
2026-04-18 10:39 43.56281 -6.03120 404 ft 125 kts 287°